Time;durP1;ratioP1;P1;durP2;ratioP2;P2;SDS_P1;SDS_P2;PMS_P1;PMS_P2;Temp;Humidity;BMP_temperature;BMP_pressure;BME280_temperature;BME280_humidity;BME280_pressure;Samples;Min_cycle;Max_cycle;Signal;HPM_P1;HPM_P2
2021/11/24 00:00:26;;;;;;;61.60;41.97;;;;;;;3.44;100.00;99953.63;2038562;28;20274;-73
2021/11/24 00:01:30;;;;;;;62.20;41.10;;;;;;;3.44;100.00;99953.63;2038748;28;20238;-73
2021/11/24 00:02:33;;;;;;;61.97;42.35;;;;;;;3.49;100.00;99951.13;2038440;29;20669;-73
2021/11/24 00:03:36;;;;;;;68.65;42.25;;;;;;;3.45;100.00;99952.59;2038206;29;20274;-73
2021/11/24 00:04:39;;;;;;;65.65;41.22;;;;;;;3.48;100.00;99946.88;2037690;28;20246;-72
2021/11/24 00:05:41;;;;;;;64.03;42.63;;;;;;;3.47;100.00;99958.44;2038746;28;20242;-73
2021/11/24 00:06:44;;;;;;;70.03;43.30;;;;;;;3.49;100.00;99959.03;2038800;28;20234;-74
2021/11/24 00:07:49;;;;;;;60.85;40.88;;;;;;;3.48;100.00;99952.16;2038127;29;20227;-73
2021/11/24 00:08:50;;;;;;;63.78;41.95;;;;;;;3.48;100.00;99957.44;2038132;29;20354;-73
2021/11/24 00:09:55;;;;;;;59.90;40.75;;;;;;;3.50;100.00;99952.72;2038246;29;20235;-73
2021/11/24 00:10:58;;;;;;;61.33;40.95;;;;;;;3.47;100.00;99946.06;2037759;29;20230;-73
2021/11/24 00:12:03;;;;;;;60.90;41.20;;;;;;;3.46;100.00;99956.84;2038715;28;20230;-73
2021/11/24 00:13:05;;;;;;;60.28;40.70;;;;;;;3.47;100.00;99958.44;2038270;29;20222;-73
2021/11/24 00:14:07;;;;;;;58.78;39.42;;;;;;;3.47;100.00;99963.72;2037942;29;20226;-73
2021/11/24 00:15:11;;;;;;;62.45;40.22;;;;;;;3.45;100.00;99942.03;2038379;28;20242;-73
2021/11/24 00:16:14;;;;;;;62.67;41.17;;;;;;;3.47;100.00;99959.25;2038068;29;20234;-72
2021/11/24 00:17:17;;;;;;;61.38;40.10;;;;;;;3.48;100.00;99954.78;2038041;29;20227;-73
2021/11/24 00:18:21;;;;;;;68.63;41.83;;;;;;;3.49;100.00;99956.41;2038431;29;20673;-73
2021/11/24 00:19:22;;;;;;;61.40;40.28;;;;;;;3.49;100.00;99956.41;2030244;29;20666;-73
2021/11/24 00:20:25;;;;;;;62.53;41.15;;;;;;;3.50;100.00;99953.53;2037881;29;20728;-73
2021/11/24 00:21:29;;;;;;;66.90;40.63;;;;;;;3.50;100.00;99960.66;2030238;29;20234;-73
2021/11/24 00:22:34;;;;;;;68.57;42.47;;;;;;;3.47;100.00;99953.97;2030530;29;20231;-73
2021/11/24 00:23:38;;;;;;;64.25;41.50;;;;;;;3.57;100.00;99959.50;2038270;29;20650;-72
2021/11/24 00:24:41;;;;;;;69.22;42.47;;;;;;;3.57;100.00;99958.72;2037712;29;20235;-73
2021/11/24 00:25:46;;;;;;;68.32;41.70;;;;;;;3.55;100.00;99966.81;2038868;28;20231;-73
2021/11/24 00:26:48;;;;;;;62.47;40.78;;;;;;;3.56;100.00;99968.47;2038303;29;20230;-73
2021/11/24 00:27:49;;;;;;;63.17;40.67;;;;;;;3.53;100.00;99957.53;2038174;29;20318;-73
2021/11/24 00:28:51;;;;;;;66.30;41.67;;;;;;;3.55;100.00;99966.03;2038783;28;20681;-73
2021/11/24 00:29:55;;;;;;;65.18;40.80;;;;;;;3.53;100.00;99952.25;2038401;28;20226;-74
2021/11/24 00:30:58;;;;;;;63.17;41.20;;;;;;;3.52;100.00;99954.09;2038063;29;20748;-73
2021/11/24 00:32:01;;;;;;;66.45;40.30;;;;;;;3.54;100.00;99953.88;2030538;29;20227;-73
2021/11/24 00:33:03;;;;;;;64.63;41.58;;;;;;;3.55;100.00;99960.75;2038092;29;20222;-72
2021/11/24 00:34:06;;;;;;;65.60;41.00;;;;;;;3.54;100.00;99959.94;2037822;29;20222;-73
2021/11/24 00:35:08;;;;;;;67.40;41.80;;;;;;;3.55;100.00;99956.28;2029756;29;20632;-77
2021/11/24 00:36:11;;;;;;;62.70;40.10;;;;;;;3.54;100.00;99956.50;2030499;29;20274;-73
2021/11/24 00:37:13;;;;;;;68.20;40.35;;;;;;;3.56;100.00;99967.63;2030515;29;20753;-73
2021/11/24 00:38:18;;;;;;;60.53;39.00;;;;;;;3.54;100.00;99956.50;2029833;29;20254;-73
2021/11/24 00:39:21;;;;;;;59.35;39.25;;;;;;;3.53;100.00;99950.44;2029939;29;20322;-73
2021/11/24 00:40:25;;;;;;;64.35;39.80;;;;;;;3.53;100.00;99958.34;2037791;28;20231;-73
2021/11/24 00:41:26;;;;;;;59.08;38.60;;;;;;;3.48;100.00;99954.78;2038042;29;20234;-73
2021/11/24 00:42:28;;;;;;;62.00;40.07;;;;;;;3.53;100.00;99962.81;2038032;29;20239;-73
2021/11/24 00:43:31;;;;;;;58.38;38.35;;;;;;;3.56;100.00;99962.34;2037817;29;20223;-72
2021/11/24 00:44:33;;;;;;;58.00;37.70;;;;;;;3.62;100.00;99958.81;2037899;29;20301;-73
2021/11/24 00:45:37;;;;;;;57.33;38.33;;;;;;;3.62;100.00;99953.53;2030403;29;20588;-73
2021/11/24 00:46:39;;;;;;;48.17;35.90;;;;;;;3.64;100.00;99954.09;2037521;28;20270;-73
2021/11/24 00:47:43;;;;;;;54.40;36.63;;;;;;;3.59;100.00;99952.16;2038647;28;20254;-73
2021/11/24 00:48:45;;;;;;;49.15;35.88;;;;;;;3.56;100.00;99947.34;2038065;29;20727;-73
2021/11/24 00:49:45;;;;;;;55.88;37.05;;;;;;;3.53;100.00;99952.25;2038044;29;20226;-73
2021/11/24 00:50:48;;;;;;;53.13;36.93;;;;;;;3.53;100.00;99954.91;2038767;28;20259;-73
2021/11/24 00:51:50;;;;;;;56.17;36.60;;;;;;;3.51;100.00;99954.34;2038146;29;20739;-73
2021/11/24 00:52:54;;;;;;;57.15;37.92;;;;;;;3.48;100.00;99949.53;2037605;28;20244;-75
2021/11/24 00:53:58;;;;;;;53.17;36.83;;;;;;;3.50;100.00;99952.72;2038434;28;20241;-73
2021/11/24 00:55:01;;;;;;;55.22;36.05;;;;;;;3.48;100.00;99960.88;2038771;28;20309;-73
2021/11/24 00:56:04;;;;;;;52.65;36.15;;;;;;;3.49;100.00;99957.19;2038172;29;20304;-74
2021/11/24 00:57:07;;;;;;;54.75;35.58;;;;;;;3.48;100.00;99966.16;2038059;29;20768;-73
2021/11/24 00:58:10;;;;;;;49.03;35.90;;;;;;;3.42;100.00;99953.84;2037563;29;20231;-73
2021/11/24 00:59:12;;;;;;;49.50;34.90;;;;;;;3.47;100.00;99950.53;2030228;29;20227;-73
2021/11/24 01:00:17;;;;;;;51.67;34.20;;;;;;;3.46;100.00;99956.84;2037765;29;20239;-73
2021/11/24 01:01:21;;;;;;;52.40;35.70;;;;;;;3.43;100.00;99952.81;2030554;29;20733;-72
2021/11/24 01:02:22;;;;;;;48.08;34.85;;;;;;;3.39;100.00;99949.03;2037742;29;20231;-73
2021/11/24 01:03:25;;;;;;;54.33;35.78;;;;;;;3.37;100.00;99959.00;2037864;29;20260;-73
2021/11/24 01:04:28;;;;;;;50.17;34.70;;;;;;;3.37;100.00;99956.38;2037764;29;20237;-74
2021/11/24 01:05:34;;;;;;;54.17;37.00;;;;;;;3.35;100.00;99950.50;2037621;29;20658;-73
2021/11/24 01:06:41;;;;;;;51.38;35.05;;;;;;;3.30;100.00;99956.47;2032124;29;20676;-72
2021/11/24 01:07:46;;;;;;;53.38;34.17;;;;;;;3.30;100.00;99959.13;2039098;29;20231;-73
2021/11/24 01:08:52;;;;;;;49.80;34.80;;;;;;;3.25;100.00;99953.72;2040200;28;20230;-72
2021/11/24 01:09:56;;;;;;;49.80;33.53;;;;;;;3.26;100.00;99957.94;2039201;29;20226;-74
2021/11/24 01:10:59;;;;;;;49.38;35.03;;;;;;;3.27;100.00;99949.00;2039521;29;20242;-72
2021/11/24 01:12:02;;;;;;;49.50;34.38;;;;;;;3.23;100.00;99957.59;2039352;29;20226;-72
2021/11/24 01:13:05;;;;;;;51.13;34.22;;;;;;;3.21;100.00;99954.38;2039345;29;20319;-72
2021/11/24 01:14:10;;;;;;;52.40;34.92;;;;;;;3.19;100.00;99956.44;2038568;29;20306;-75
2021/11/24 01:15:14;;;;;;;46.10;34.47;;;;;;;3.19;100.00;99961.72;2039426;29;20674;-73
2021/11/24 01:16:20;;;;;;;48.05;35.17;;;;;;;3.18;100.00;99960.91;2039640;29;20226;-73
2021/11/24 01:17:21;;;;;;;49.63;35.08;;;;;;;3.16;100.00;99955.06;2039538;29;20230;-72
2021/11/24 01:18:24;;;;;;;47.65;34.45;;;;;;;3.18;100.00;99968.81;2038841;29;20233;-73
2021/11/24 01:19:27;;;;;;;52.42;39.42;;;;;;;3.16;100.00;99962.97;2031971;29;20231;-72
2021/11/24 01:20:32;;;;;;;53.88;37.83;;;;;;;3.12;100.00;99956.53;2031975;29;20231;-72
2021/11/24 01:21:38;;;;;;;52.55;39.58;;;;;;;3.10;100.00;99955.94;2031676;29;20665;-72
2021/11/24 01:22:41;;;;;;;59.50;41.92;;;;;;;3.05;100.00;99953.19;2031329;29;20231;-74
2021/11/24 01:23:46;;;;;;;50.33;39.47;;;;;;;3.03;100.00;99955.22;2039120;29;20257;-72
2021/11/24 01:24:48;;;;;;;58.75;42.35;;;;;;;3.06;100.00;99957.44;2039508;29;20226;-72
2021/11/24 01:25:56;;;;;;;54.13;42.75;;;;;;;3.02;100.00;99961.53;2039295;29;20242;-73
2021/11/24 01:26:59;;;;;;;57.40;42.22;;;;;;;2.99;100.00;99962.00;2039657;28;20235;-73
2021/11/24 01:28:05;;;;;;;56.15;42.13;;;;;;;2.98;100.00;99955.13;2040030;28;20749;-72
2021/11/24 01:29:07;;;;;;;53.92;42.80;;;;;;;2.97;100.00;99958.78;2039936;28;20222;-72
2021/11/24 01:30:14;;;;;;;57.55;44.33;;;;;;;2.94;100.00;99960.03;2039549;28;20250;-72
2021/11/24 01:31:16;;;;;;;57.38;42.28;;;;;;;2.92;100.00;99956.00;2039972;28;20222;-72
2021/11/24 01:32:20;;;;;;;56.85;40.22;;;;;;;2.93;100.00;99955.78;2039931;28;20238;-73
2021/11/24 01:33:21;;;;;;;58.17;45.15;;;;;;;2.91;100.00;99949.94;2038898;29;20226;-72
2021/11/24 01:34:25;;;;;;;57.63;40.35;;;;;;;2.95;100.00;99960.81;2039052;29;20821;-72
2021/11/24 01:35:29;;;;;;;57.80;42.35;;;;;;;2.96;100.00;99952.72;2039288;29;20700;-71
2021/11/24 01:36:34;;;;;;;54.53;42.38;;;;;;;2.93;100.00;99947.88;2039272;29;20230;-72
2021/11/24 01:37:39;;;;;;;57.90;43.67;;;;;;;2.91;100.00;99957.84;2039506;28;20661;-72
2021/11/24 01:38:43;;;;;;;56.42;44.42;;;;;;;2.91;100.00;99954.41;2039355;29;20318;-71
2021/11/24 01:39:44;;;;;;;55.38;46.70;;;;;;;2.88;100.00;99950.38;2038881;29;20297;-71
2021/11/24 01:40:49;;;;;;;57.90;45.85;;;;;;;2.88;100.00;99950.38;2039216;29;20314;-71
2021/11/24 01:41:56;;;;;;;57.22;41.25;;;;;;;2.92;100.00;99948.09;2032098;29;20314;-72
2021/11/24 01:43:00;;;;;;;56.08;41.63;;;;;;;2.90;100.00;99947.53;2038595;29;20234;-71
2021/11/24 01:44:02;;;;;;;51.75;43.58;;;;;;;2.91;100.00;99949.94;2031769;29;20242;-72
2021/11/24 01:45:10;;;;;;;52.42;39.30;;;;;;;2.89;100.00;99948.56;2039163;29;20234;-72
2021/11/24 01:46:12;;;;;;;52.03;38.10;;;;;;;2.89;100.00;99952.00;2039579;28;20672;-71
2021/11/24 01:47:15;;;;;;;52.60;40.75;;;;;;;2.83;100.00;99947.59;2039274;29;20241;-72
2021/11/24 01:48:17;;;;;;;54.65;39.05;;;;;;;2.85;100.00;99945.53;2039049;29;20226;-71
2021/11/24 01:49:25;;;;;;;50.17;39.08;;;;;;;2.86;100.00;99946.34;2039320;29;20330;-71
2021/11/24 01:50:28;;;;;;;49.25;39.63;;;;;;;2.81;100.00;99942.56;2032049;29;20247;-71
2021/11/24 01:51:37;;;;;;;49.78;38.80;;;;;;;2.87;100.00;99940.03;2039163;29;20226;-71
2021/11/24 01:52:40;;;;;;;51.15;40.00;;;;;;;2.86;100.00;99946.34;2038529;29;20255;-71
2021/11/24 01:53:43;;;;;;;49.90;37.58;;;;;;;2.84;100.00;99944.75;2031488;29;20722;-72
2021/11/24 01:54:47;;;;;;;45.00;36.47;;;;;;;2.86;100.00;99943.72;2039113;29;20232;-71
2021/11/24 01:55:55;;;;;;;51.50;38.05;;;;;;;2.94;100.00;99946.03;2039807;28;20239;-71
2021/11/24 01:57:02;;;;;;;54.00;39.35;;;;;;;2.88;100.00;99939.03;2039441;28;20656;-72
2021/11/24 01:58:06;;;;;;;49.10;38.35;;;;;;;2.87;100.00;99946.16;2039032;29;20247;-71
2021/11/24 01:59:10;;;;;;;46.95;36.15;;;;;;;2.87;100.00;99947.94;2031533;29;20247;-71
2021/11/24 02:00:17;;;;;;;43.88;34.55;;;;;;;2.87;100.00;99946.16;2031683;29;20257;-72
2021/11/24 02:01:18;;;;;;;47.13;37.20;;;;;;;2.85;100.00;99948.19;2031761;29;20227;-72
2021/11/24 02:02:21;;;;;;;49.23;35.73;;;;;;;2.86;100.00;99938.44;2039182;29;20238;-71
2021/11/24 02:03:23;;;;;;;49.22;36.10;;;;;;;2.86;100.00;99947.16;2038558;29;20451;-72
2021/11/24 02:04:31;;;;;;;45.33;35.13;;;;;;;2.87;100.00;99942.69;2039062;29;20241;-71
2021/11/24 02:05:37;;;;;;;46.28;35.58;;;;;;;2.88;100.00;99945.13;2039784;28;20554;-71
2021/11/24 02:06:41;;;;;;;43.95;35.22;;;;;;;2.85;100.00;99945.53;2039417;28;20230;-72
2021/11/24 02:07:46;;;;;;;46.60;35.70;;;;;;;2.87;100.00;99951.41;2038741;29;20757;-72
2021/11/24 02:08:50;;;;;;;44.88;34.67;;;;;;;2.87;100.00;99951.41;2031528;29;20311;-72
2021/11/24 02:09:54;;;;;;;54.20;35.05;;;;;;;2.88;100.00;99947.75;2031724;29;20231;-72
2021/11/24 02:11:01;;;;;;;44.10;33.50;;;;;;;2.91;100.00;99955.19;2038561;29;20263;-72
2021/11/24 02:12:06;;;;;;;45.28;35.03;;;;;;;2.88;100.00;99944.31;2038736;29;20230;-72
2021/11/24 02:13:12;;;;;;;45.05;34.33;;;;;;;2.88;100.00;99945.13;2038722;28;20241;-72
2021/11/24 02:14:20;;;;;;;44.00;33.17;;;;;;;2.92;100.00;99945.47;2038761;29;20223;-72
2021/11/24 02:15:23;;;;;;;46.58;35.35;;;;;;;2.91;100.00;99944.66;2038974;29;20273;-71
2021/11/24 02:16:24;;;;;;;49.28;34.72;;;;;;;2.92;100.00;99948.09;2039306;28;20231;-73
2021/11/24 02:17:31;;;;;;;49.75;33.80;;;;;;;2.90;100.00;99944.88;2038877;28;20227;-72
2021/11/24 02:18:38;;;;;;;42.38;33.67;;;;;;;2.89;100.00;99938.00;2039641;28;20587;-71
2021/11/24 02:19:44;;;;;;;41.53;32.70;;;;;;;2.88;100.00;99944.31;2039090;28;20651;-72
2021/11/24 02:20:49;;;;;;;47.60;33.75;;;;;;;2.88;100.00;99939.03;2038923;29;20249;-73
2021/11/24 02:21:56;;;;;;;41.42;32.50;;;;;;;2.88;100.00;99939.03;2038904;29;20269;-72
2021/11/24 02:23:01;;;;;;;38.45;31.90;;;;;;;2.87;100.00;99943.50;2039154;28;20369;-72
2021/11/24 02:24:03;;;;;;;43.17;32.67;;;;;;;2.89;100.00;99940.66;2039647;28;20584;-71
2021/11/24 02:25:08;;;;;;;41.70;33.20;;;;;;;2.90;100.00;99942.25;2039633;28;20313;-72
2021/11/24 02:26:14;;;;;;;41.35;33.00;;;;;;;2.94;100.00;99944.19;2038665;29;20242;-72
2021/11/24 02:27:18;;;;;;;43.42;32.55;;;;;;;2.93;100.00;99941.78;2038702;29;20681;-72
2021/11/24 02:28:26;;;;;;;39.17;32.58;;;;;;;2.94;100.00;99946.03;2038903;29;20585;-72
2021/11/24 02:29:32;;;;;;;41.85;33.08;;;;;;;2.93;100.00;99944.44;2038552;29;20703;-72
2021/11/24 02:30:33;;;;;;;40.45;32.88;;;;;;;2.92;100.00;99942.81;2039761;28;20312;-72
2021/11/24 02:31:39;;;;;;;39.55;31.90;;;;;;;2.92;100.00;99941.00;2039702;28;20231;-72
2021/11/24 02:32:42;;;;;;;38.00;31.83;;;;;;;2.92;100.00;99943.63;2039135;28;20226;-72
2021/11/24 02:33:53;;;;;;;39.55;33.00;;;;;;;2.92;100.00;99933.09;2038705;29;20317;-72
2021/11/24 02:34:59;;;;;;;41.85;32.28;;;;;;;2.91;100.00;99934.13;2038376;28;20230;-72
2021/11/24 02:36:06;;;;;;;43.50;33.63;;;;;;;2.89;100.00;99932.75;2039015;29;20226;-72
2021/11/24 02:37:09;;;;;;;41.55;32.25;;;;;;;2.89;100.00;99935.38;2038354;28;20226;-72
2021/11/24 02:38:13;;;;;;;38.55;31.73;;;;;;;2.86;100.00;99936.59;2038655;29;20227;-72
2021/11/24 02:39:20;;;;;;;44.45;33.78;;;;;;;2.87;100.00;99934.78;2038768;29;20223;-72
2021/11/24 02:40:31;;;;;;;38.95;31.52;;;;;;;2.87;100.00;99937.41;2039360;28;20238;-72
2021/11/24 02:41:35;;;;;;;42.65;32.30;;;;;;;2.84;100.00;99928.94;2039261;28;20321;-72
2021/11/24 02:42:41;;;;;;;40.20;32.85;;;;;;;2.82;100.00;99933.63;2039498;28;20226;-72
2021/11/24 02:43:46;;;;;;;35.17;31.15;;;;;;;2.83;100.00;99926.53;2038990;28;20230;-72
2021/11/24 02:44:51;;;;;;;42.97;33.03;;;;;;;2.84;100.00;99933.41;2038844;29;20226;-72
2021/11/24 02:45:52;;;;;;;38.78;31.48;;;;;;;2.83;100.00;99929.97;2038596;28;20251;-73
2021/11/24 02:47:10;;;;;;;38.88;32.00;;;;;;;2.84;100.00;99934.19;2038690;29;20723;-73
2021/11/24 02:48:22;;;;;;;37.60;30.65;;;;;;;2.83;100.00;99927.31;2038327;28;20247;-72
2021/11/24 02:50:19;;;;;;;38.25;30.38;;;;;;;2.81;100.00;99929.38;2029841;29;20689;-72
2021/11/24 02:51:22;;;;;;;41.25;30.30;;;;;;;2.83;100.00;99937.88;2017610;29;20277;-72
2021/11/24 02:52:24;;;;;;;36.92;30.50;;;;;;;2.82;100.00;99935.47;2038337;29;20234;-72
2021/11/24 02:53:26;;;;;;;40.05;31.02;;;;;;;2.81;100.00;99928.59;2039063;28;20318;-72
2021/11/24 02:54:27;;;;;;;39.15;30.27;;;;;;;2.78;100.00;99931.66;2039315;28;20230;-72
2021/11/24 02:55:29;;;;;;;40.63;30.93;;;;;;;2.79;100.00;99931.44;2039343;28;20281;-72
2021/11/24 02:56:30;;;;;;;39.05;31.30;;;;;;;2.79;100.00;99930.66;2039384;28;20239;-72
2021/11/24 02:57:33;;;;;;;39.83;31.13;;;;;;;2.78;100.00;99929.84;2038609;29;20249;-72
2021/11/24 02:58:35;;;;;;;39.15;31.38;;;;;;;2.77;100.00;99927.41;2038772;29;20697;-72
2021/11/24 02:59:37;;;;;;;37.78;30.80;;;;;;;2.77;100.00;99928.22;2038524;29;20222;-72
2021/11/24 03:00:39;;;;;;;36.42;30.40;;;;;;;2.76;100.00;99931.88;2030430;29;20235;-72
2021/11/24 03:01:40;;;;;;;36.50;30.33;;;;;;;2.76;100.00;99921.34;2030991;29;20666;-72
2021/11/24 03:02:42;;;;;;;43.57;31.33;;;;;;;2.74;100.00;99930.50;2038539;29;20230;-72
2021/11/24 03:03:44;;;;;;;38.88;30.65;;;;;;;2.74;100.00;99923.41;2038859;29;20239;-72
2021/11/24 03:04:44;;;;;;;39.67;31.02;;;;;;;2.74;100.00;99931.31;2038717;29;20664;-73
2021/11/24 03:05:47;;;;;;;39.60;30.63;;;;;;;2.73;100.00;99929.69;2038763;29;20226;-72
2021/11/24 03:06:49;;;;;;;36.08;30.75;;;;;;;2.74;100.00;99925.22;2038604;29;20230;-72
2021/11/24 03:07:51;;;;;;;39.60;31.63;;;;;;;2.76;100.00;99926.59;2039265;28;20222;-72
2021/11/24 03:08:52;;;;;;;38.20;31.77;;;;;;;2.74;100.00;99927.88;2038173;29;20713;-72
2021/11/24 03:09:54;;;;;;;38.73;31.00;;;;;;;2.73;100.00;99927.06;2038491;29;20235;-73
2021/11/24 03:10:55;;;;;;;37.10;32.28;;;;;;;2.75;100.00;99921.56;2038494;29;20347;-71
2021/11/24 03:11:57;;;;;;;35.87;30.93;;;;;;;2.75;100.00;99922.38;2038727;29;20321;-72
2021/11/24 03:13:00;;;;;;;37.83;31.23;;;;;;;2.74;100.00;99928.66;2038401;29;20685;-72
2021/11/24 03:14:04;;;;;;;36.83;30.20;;;;;;;2.74;100.00;99927.88;2038766;29;20246;-72
2021/11/24 03:15:08;;;;;;;36.95;31.20;;;;;;;2.75;100.00;99925.00;2038066;29;20281;-75
2021/11/24 03:16:10;;;;;;;34.17;30.42;;;;;;;2.75;100.00;99927.63;2038464;29;20317;-72
2021/11/24 03:17:10;;;;;;;40.53;31.92;;;;;;;2.74;100.00;99931.31;2038486;29;20330;-72
2021/11/24 03:18:12;;;;;;;37.50;30.43;;;;;;;2.73;100.00;99921.00;2038442;29;20230;-72
2021/11/24 03:19:13;;;;;;;33.47;29.73;;;;;;;2.74;100.00;99925.22;2038444;29;20223;-72
2021/11/24 03:20:17;;;;;;;39.67;31.03;;;;;;;2.73;100.00;99929.69;2038419;29;20713;-72
2021/11/24 03:21:19;;;;;;;33.97;29.90;;;;;;;2.74;100.00;99923.41;2039196;28;20222;-73
2021/11/24 03:22:22;;;;;;;34.08;29.60;;;;;;;2.73;100.00;99924.44;2039335;28;20222;-72
2021/11/24 03:23:23;;;;;;;34.05;30.20;;;;;;;2.75;100.00;99930.28;2038882;28;20245;-72
2021/11/24 03:24:25;;;;;;;37.57;31.10;;;;;;;2.79;100.00;99917.47;2039319;28;20326;-73
2021/11/24 03:25:26;;;;;;;38.03;32.05;;;;;;;2.79;100.00;99926.19;2039129;28;20238;-72
2021/11/24 03:26:31;;;;;;;37.73;30.37;;;;;;;2.79;100.00;99930.66;2038410;29;20219;-73
2021/11/24 03:27:34;;;;;;;37.13;30.75;;;;;;;2.77;100.00;99933.47;2038263;29;20234;-71
2021/11/24 03:28:36;;;;;;;34.92;29.95;;;;;;;2.76;100.00;99923.97;2038415;29;20298;-72
2021/11/24 03:29:37;;;;;;;36.50;30.73;;;;;;;2.78;100.00;99929.00;2038753;28;20241;-75
2021/11/24 03:30:39;;;;;;;35.43;29.83;;;;;;;2.75;100.00;99918.94;2038100;29;20290;-72
2021/11/24 03:31:40;;;;;;;35.70;29.75;;;;;;;2.77;100.00;99928.22;2038360;29;20254;-71
2021/11/24 03:32:42;;;;;;;34.95;29.83;;;;;;;2.77;100.00;99925.56;2039086;28;20227;-72
2021/11/24 03:33:44;;;;;;;37.00;33.03;;;;;;;2.77;100.00;99920.31;2038230;29;20297;-72
2021/11/24 03:34:46;;;;;;;38.08;31.52;;;;;;;2.77;100.00;99927.41;2038596;29;20227;-72
2021/11/24 03:35:48;;;;;;;41.38;32.20;;;;;;;2.76;100.00;99926.59;2038492;29;20259;-72
2021/11/24 03:36:49;;;;;;;36.20;31.60;;;;;;;2.78;100.00;99923.75;2039236;28;20241;-72
2021/11/24 03:37:52;;;;;;;37.03;31.33;;;;;;;2.78;100.00;99923.75;2039183;28;20249;-73
2021/11/24 03:38:53;;;;;;;36.47;32.25;;;;;;;2.75;100.00;99919.72;2037868;29;20708;-72
2021/11/24 03:39:55;;;;;;;39.00;30.73;;;;;;;2.75;100.00;99917.09;2038275;29;20586;-72
2021/11/24 03:40:56;;;;;;;35.90;31.13;;;;;;;2.76;100.00;99926.59;2039077;28;20290;-72
2021/11/24 03:42:00;;;;;;;34.85;30.48;;;;;;;2.76;100.00;99915.25;2038293;29;20321;-74
2021/11/24 03:43:03;;;;;;;37.47;30.58;;;;;;;2.75;100.00;99913.66;2038799;29;20269;-72
2021/11/24 03:44:05;;;;;;;36.53;30.50;;;;;;;2.74;100.00;99914.69;2038426;29;20215;-73
2021/11/24 03:45:06;;;;;;;35.45;31.13;;;;;;;2.75;100.00;99922.38;2038992;28;20450;-72
2021/11/24 03:46:08;;;;;;;35.42;31.02;;;;;;;2.72;100.00;99914.91;2037913;29;20222;-73
2021/11/24 03:47:09;;;;;;;40.38;30.42;;;;;;;2.74;100.00;99917.31;2038301;29;20234;-73
2021/11/24 03:48:13;;;;;;;36.53;30.77;;;;;;;2.76;100.00;99912.63;2038384;29;20231;-72
2021/11/24 03:49:15;;;;;;;32.92;29.15;;;;;;;2.78;100.00;99913.19;2038388;29;20249;-72
2021/11/24 03:50:17;;;;;;;36.40;31.98;;;;;;;2.74;100.00;99915.50;2038464;29;20279;-73
2021/11/24 03:51:18;;;;;;;40.22;32.05;;;;;;;2.75;100.00;99908.38;2030425;29;20224;-73
2021/11/24 03:52:19;;;;;;;35.60;29.63;;;;;;;2.75;100.00;99914.47;2038134;29;20583;-72
2021/11/24 03:53:22;;;;;;;37.13;30.93;;;;;;;2.73;100.00;99911.25;2038190;29;20329;-72
2021/11/24 03:54:25;;;;;;;37.75;31.77;;;;;;;2.73;100.00;99911.25;2030163;29;20223;-73
2021/11/24 03:55:27;;;;;;;37.03;31.10;;;;;;;2.73;100.00;99913.88;2030639;29;20234;-73
2021/11/24 03:56:28;;;;;;;38.90;31.92;;;;;;;2.72;100.00;99912.28;2030717;29;20638;-73
2021/11/24 03:57:30;;;;;;;39.33;31.97;;;;;;;2.70;100.00;99911.72;2030717;29;20227;-73
2021/11/24 03:58:32;;;;;;;36.83;31.70;;;;;;;2.73;100.00;99919.16;2038098;29;20286;-72
2021/11/24 03:59:33;;;;;;;34.60;30.85;;;;;;;2.74;100.00;99902.31;2038353;29;20234;-72
2021/11/24 04:00:36;;;;;;;38.60;32.57;;;;;;;2.73;100.00;99905.19;2038376;29;20227;-73
2021/11/24 04:01:37;;;;;;;39.47;31.80;;;;;;;2.75;100.00;99914.47;2030176;29;20717;-76
2021/11/24 04:02:41;;;;;;;39.45;32.28;;;;;;;2.76;100.00;99910.78;2038188;29;20310;-73
2021/11/24 04:03:42;;;;;;;40.58;31.40;;;;;;;2.73;100.00;99911.25;2038143;29;20329;-73
2021/11/24 04:04:43;;;;;;;38.43;31.97;;;;;;;2.74;100.00;99912.88;2038175;29;20223;-71
2021/11/24 04:05:44;;;;;;;36.88;30.83;;;;;;;2.74;100.00;99904.97;2038096;29;20713;-73
2021/11/24 04:06:46;;;;;;;36.23;31.83;;;;;;;2.71;100.00;99908.03;2038251;29;20671;-72
2021/11/24 04:07:47;;;;;;;41.60;31.67;;;;;;;2.79;100.00;99907.75;2038400;29;20226;-73
2021/11/24 04:08:51;;;;;;;39.07;33.27;;;;;;;2.77;100.00;99901.88;2030557;29;20227;-72
2021/11/24 04:09:53;;;;;;;37.78;32.33;;;;;;;2.73;100.00;99897.28;2037677;29;20238;-73
2021/11/24 04:10:56;;;;;;;39.65;32.92;;;;;;;2.73;100.00;99894.66;2030660;29;20452;-72
2021/11/24 04:11:56;;;;;;;40.92;33.10;;;;;;;2.71;100.00;99897.50;2038068;29;20613;-72
2021/11/24 04:12:58;;;;;;;37.43;33.37;;;;;;;2.70;100.00;99895.91;2038261;29;20226;-73
2021/11/24 04:13:59;;;;;;;39.80;33.55;;;;;;;2.69;100.00;99902.19;2037997;29;20226;-73
2021/11/24 04:15:01;;;;;;;41.67;33.40;;;;;;;2.68;100.00;99892.66;2038950;28;20716;-71
2021/11/24 04:16:03;;;;;;;38.75;32.95;;;;;;;2.71;100.00;99896.72;2038368;29;20589;-72
2021/11/24 04:17:06;;;;;;;38.30;31.55;;;;;;;2.70;100.00;99890.63;2038250;29;20309;-71
2021/11/24 04:18:08;;;;;;;36.47;31.15;;;;;;;2.68;100.00;99890.03;2037568;29;20666;-72
2021/11/24 04:19:09;;;;;;;41.97;33.10;;;;;;;2.67;100.00;99885.78;2030416;29;20674;-71
2021/11/24 04:20:13;;;;;;;39.83;32.00;;;;;;;2.64;100.00;99886.25;2030537;29;20566;-72
2021/11/24 04:21:14;;;;;;;37.42;32.65;;;;;;;2.68;100.00;99887.41;2038010;29;20234;-72
2021/11/24 04:22:16;;;;;;;36.47;32.43;;;;;;;2.67;100.00;99880.53;2038236;29;20704;-72
2021/11/24 04:23:18;;;;;;;39.15;32.58;;;;;;;2.67;100.00;99882.34;2038073;29;20269;-72
2021/11/24 04:24:20;;;;;;;35.95;30.17;;;;;;;2.65;100.00;99882.59;2038718;28;20230;-71
2021/11/24 04:25:22;;;;;;;37.20;30.13;;;;;;;2.65;100.00;99884.41;2038705;28;20234;-72
2021/11/24 04:26:23;;;;;;;35.28;30.15;;;;;;;2.65;100.00;99887.84;2037530;29;20222;-71
2021/11/24 04:27:25;;;;;;;38.83;30.77;;;;;;;2.63;100.00;99882.00;2030333;29;20279;-71
2021/11/24 04:28:25;;;;;;;35.70;30.70;;;;;;;2.64;100.00;99891.53;2038060;29;20227;-71
2021/11/24 04:29:29;;;;;;;35.63;31.07;;;;;;;2.65;100.00;99893.13;2038687;28;20230;-71
2021/11/24 04:30:31;;;;;;;35.63;29.80;;;;;;;2.64;100.00;99886.25;2038717;28;20281;-71
2021/11/24 04:31:33;;;;;;;35.53;30.80;;;;;;;2.63;100.00;99887.28;2038260;29;20242;-72
2021/11/24 04:32:34;;;;;;;36.10;30.00;;;;;;;2.62;100.00;99887.50;2038079;29;20658;-71
2021/11/24 04:33:36;;;;;;;37.90;30.73;;;;;;;2.64;100.00;99896.78;2038699;28;20230;-71
2021/11/24 04:34:37;;;;;;;36.35;29.23;;;;;;;2.65;100.00;99890.50;2038166;28;20245;-72
2021/11/24 04:35:39;;;;;;;39.90;30.23;;;;;;;2.68;100.00;99886.59;2037790;29;20662;-71
2021/11/24 04:36:43;;;;;;;32.58;28.02;;;;;;;2.66;100.00;99891.28;2037897;29;20727;-70
2021/11/24 04:37:44;;;;;;;31.75;27.92;;;;;;;2.66;100.00;99891.28;2038732;28;20251;-72
2021/11/24 04:38:46;;;;;;;33.22;29.33;;;;;;;2.64;100.00;99882.81;2038640;28;20237;-74
2021/11/24 04:39:48;;;;;;;32.30;28.40;;;;;;;2.62;100.00;99888.31;2038476;28;20226;-72
2021/11/24 04:40:50;;;;;;;36.85;29.55;;;;;;;2.64;100.00;99894.16;2038066;28;20223;-73
2021/11/24 04:41:51;;;;;;;33.90;29.13;;;;;;;2.66;100.00;99894.72;2038091;29;20235;-73
2021/11/24 04:42:54;;;;;;;35.60;29.13;;;;;;;2.66;100.00;99888.66;2037499;29;20234;-75
2021/11/24 04:43:55;;;;;;;31.88;28.17;;;;;;;2.65;100.00;99898.38;2038421;28;20234;-73
2021/11/24 04:44:58;;;;;;;32.28;28.55;;;;;;;2.69;100.00;99899.53;2038674;28;20608;-73
2021/11/24 04:46:02;;;;;;;31.98;27.85;;;;;;;2.66;100.00;99892.09;2037835;29;20234;-72
2021/11/24 04:47:08;;;;;;;36.55;29.00;;;;;;;2.68;100.00;99884.75;2037800;29;20229;-73
2021/11/24 04:48:28;;;;;;;31.85;27.42;;;;;;;2.65;100.00;99882.59;2037285;29;20315;-73
2021/11/24 04:49:29;;;;;;;31.95;28.05;;;;;;;2.67;100.00;99879.72;2037802;28;20273;-72
2021/11/24 04:50:32;;;;;;;33.17;27.53;;;;;;;2.66;100.00;99878.91;2037764;29;20258;-72
2021/11/24 04:51:34;;;;;;;30.27;26.95;;;;;;;2.71;100.00;99884.34;2038035;29;20220;-72